createdAt,value
2018-05-18T00:02:00.916Z,42.90
2018-05-18T00:04:29.001Z,47.27
2018-05-18T00:06:57.147Z,39.20
2018-05-18T00:09:24.809Z,38.70
2018-05-18T00:11:52.564Z,53.90
2018-05-18T00:14:20.232Z,37.53
2018-05-18T00:16:47.902Z,43.67
2018-05-18T00:19:15.551Z,46.33
2018-05-18T00:21:43.222Z,43.83
2018-05-18T00:24:10.888Z,37.53
2018-05-18T00:26:38.537Z,54.87
2018-05-18T00:29:06.199Z,41.53
2018-05-18T00:31:33.889Z,43.97
2018-05-18T00:34:01.968Z,47.10
2018-05-18T00:36:29.629Z,51.23
2018-05-18T00:38:57.718Z,43.57
2018-05-18T00:41:25.505Z,43.07
2018-05-18T00:43:53.161Z,51.77
2018-05-18T00:46:20.880Z,44.67
2018-05-18T00:48:48.517Z,33.33
2018-05-18T00:51:16.221Z,43.10
2018-05-18T00:53:44.288Z,48.13
2018-05-18T00:56:12.359Z,59.90
2018-05-18T00:58:40.424Z,60.13
2018-05-18T01:01:08.535Z,45.53
2018-05-18T01:03:36.266Z,47.53
2018-05-18T01:06:04.362Z,34.20
2018-05-18T01:08:32.033Z,47.23
2018-05-18T01:10:59.688Z,62.47
2018-05-18T01:13:27.625Z,50.83
2018-05-18T01:15:55.777Z,42.47
2018-05-18T01:18:23.417Z,40.43
2018-05-18T01:20:51.078Z,37.27
2018-05-18T01:23:18.804Z,54.23
2018-05-18T01:25:46.569Z,43.57
2018-05-18T01:28:14.351Z,46.63
2018-05-18T01:30:42.038Z,38.07
2018-05-18T01:33:09.700Z,42.13
2018-05-18T01:35:37.423Z,41.43
2018-05-18T01:38:05.112Z,42.80
2018-05-18T01:40:32.782Z,66.40
2018-05-18T01:43:00.519Z,44.43
2018-05-18T01:45:28.198Z,64.87
2018-05-18T01:47:55.867Z,37.97
2018-05-18T01:50:23.601Z,36.70
2018-05-18T01:52:51.282Z,36.77
2018-05-18T01:55:18.949Z,44.20
2018-05-18T01:57:46.623Z,24.97
2018-05-18T02:00:14.309Z,38.73
2018-05-18T02:02:41.965Z,55.87
2018-05-18T02:05:09.685Z,46.43
2018-05-18T02:07:37.354Z,40.90
2018-05-18T02:10:05.017Z,48.23
2018-05-18T02:12:32.759Z,43.90
2018-05-18T02:15:00.836Z,33.00
2018-05-18T02:17:28.498Z,52.00
2018-05-18T02:19:56.149Z,50.17
2018-05-18T02:22:24.246Z,41.60
2018-05-18T02:24:51.902Z,39.77
2018-05-18T02:27:19.557Z,42.53
2018-05-18T02:29:47.309Z,40.10
2018-05-18T02:32:15.409Z,34.17
2018-05-18T02:34:43.156Z,45.40
2018-05-18T02:37:11.591Z,44.80
2018-05-18T02:39:39.249Z,47.30
2018-05-18T02:42:06.917Z,40.97
2018-05-18T02:44:34.635Z,26.57
2018-05-18T02:47:02.572Z,35.33
2018-05-18T02:49:30.638Z,40.27
2018-05-18T02:51:58.341Z,44.10
2018-05-18T02:54:26.005Z,32.17
2018-05-18T02:56:53.747Z,30.53
2018-05-18T02:59:21.831Z,30.50
2018-05-18T03:01:49.546Z,38.20
2018-05-18T03:04:17.204Z,39.17
2018-05-18T03:06:44.878Z,35.50
2018-05-18T03:09:12.534Z,34.27
2018-05-18T03:11:40.192Z,31.20
2018-05-18T03:14:07.856Z,33.37
2018-05-18T03:16:35.572Z,41.73
2018-05-18T03:19:03.310Z,36.60
2018-05-18T03:21:30.997Z,46.87
2018-05-18T03:23:58.667Z,36.70
2018-05-18T03:26:26.399Z,38.50
2018-05-18T03:28:54.473Z,31.87
2018-05-18T03:31:22.547Z,24.73
2018-05-18T03:33:50.617Z,30.90
2018-05-18T03:36:18.704Z,20.07
2018-05-18T03:38:46.386Z,30.30
2018-05-18T03:41:14.157Z,39.17
2018-05-18T03:43:41.903Z,35.97
2018-05-18T03:46:09.663Z,40.43
2018-05-18T03:48:37.423Z,30.63
2018-05-18T03:51:05.235Z,25.03
2018-05-18T03:53:32.893Z,26.93
2018-05-18T03:56:00.634Z,33.30
2018-05-18T03:58:28.305Z,29.07
2018-05-18T04:00:56.012Z,22.77
2018-05-18T04:03:37.252Z,21.90
2018-05-18T04:06:16.731Z,29.50
2018-05-18T04:08:52.990Z,26.47
2018-05-18T04:11:20.655Z,22.47
2018-05-18T04:13:48.342Z,33.10
2018-05-18T04:16:16.015Z,25.33
2018-05-18T04:18:43.762Z,25.77
2018-05-18T04:21:11.425Z,22.90
2018-05-18T04:23:39.522Z,26.63
2018-05-18T04:26:07.277Z,18.53
2018-05-18T04:28:35.070Z,18.63
2018-05-18T04:31:03.202Z,28.47
2018-05-18T04:33:31.280Z,31.50
2018-05-18T04:35:58.948Z,24.30
2018-05-18T04:38:26.719Z,23.17
2018-05-18T04:40:54.365Z,21.63
2018-05-18T04:43:22.482Z,26.53
2018-05-18T04:45:50.157Z,26.07
2018-05-18T04:48:17.824Z,25.83
2018-05-18T04:50:45.507Z,24.17
2018-05-18T04:53:13.192Z,21.20
2018-05-18T04:55:40.945Z,23.10
2018-05-18T04:58:08.981Z,16.17
2018-05-18T05:00:36.659Z,20.27
2018-05-18T05:03:04.320Z,26.90
2018-05-18T05:05:32.051Z,26.00
2018-05-18T05:07:59.684Z,22.53
2018-05-18T05:10:27.425Z,29.80
2018-05-18T05:12:55.484Z,19.17
2018-05-18T05:15:23.156Z,24.23
2018-05-18T05:17:51.255Z,20.93
2018-05-18T05:20:18.999Z,26.67
2018-05-18T05:22:47.098Z,17.53
2018-05-18T05:25:14.737Z,22.50
2018-05-18T05:27:42.789Z,19.60
2018-05-18T05:30:10.569Z,36.50
2018-05-18T05:32:39.449Z,24.47
2018-05-18T05:35:07.488Z,21.50
2018-05-18T05:37:35.149Z,25.50
2018-05-18T05:40:02.849Z,24.83
2018-05-18T05:42:30.891Z,31.80
2018-05-18T05:44:58.564Z,28.27
2018-05-18T05:47:26.204Z,24.60
2018-05-18T05:49:54.023Z,25.70
2018-05-18T05:52:22.145Z,25.33
2018-05-18T05:54:49.792Z,28.93
2018-05-18T05:57:17.512Z,36.63
2018-05-18T05:59:45.569Z,25.37
2018-05-18T06:02:13.205Z,34.90
2018-05-18T06:04:40.898Z,35.53
2018-05-18T06:07:08.562Z,28.23
2018-05-18T06:09:36.714Z,36.33
2018-05-18T06:12:04.408Z,27.67
2018-05-18T06:14:32.545Z,31.83
2018-05-18T06:17:00.234Z,39.70
2018-05-18T06:19:28.334Z,31.53
2018-05-18T06:21:55.969Z,25.83
2018-05-18T06:24:24.036Z,35.43
2018-05-18T06:26:51.744Z,26.00
2018-05-18T06:29:19.474Z,30.43
2018-05-18T06:31:47.541Z,30.40
2018-05-18T06:34:15.611Z,20.77
2018-05-18T06:36:43.699Z,31.10
2018-05-18T06:39:11.794Z,35.73
2018-05-18T06:41:39.436Z,32.50
2018-05-18T06:44:07.182Z,28.10
2018-05-18T06:46:35.259Z,23.53
2018-05-18T06:49:03.330Z,26.03
2018-05-18T06:51:31.388Z,21.77
2018-05-18T06:53:59.029Z,27.73
2018-05-18T06:56:26.673Z,25.87
2018-05-18T06:58:54.385Z,21.77
2018-05-18T07:01:22.413Z,27.47
2018-05-18T07:03:50.147Z,29.33
2018-05-18T07:06:17.823Z,36.47
2018-05-18T07:08:45.460Z,51.77
2018-05-18T07:11:13.223Z,20.40
2018-05-18T07:13:40.912Z,33.30
2018-05-18T07:16:08.528Z,26.63
2018-05-18T07:18:36.612Z,37.93
2018-05-18T07:21:04.771Z,29.63
2018-05-18T07:23:32.432Z,30.67
2018-05-18T07:26:01.200Z,24.03
2018-05-18T07:28:28.900Z,20.40
2018-05-18T07:30:56.955Z,19.53
2018-05-18T07:33:25.035Z,34.03
2018-05-18T07:35:53.103Z,18.40
2018-05-18T07:38:21.170Z,29.60
2018-05-18T07:40:49.205Z,23.23
2018-05-18T07:43:16.879Z,18.80
2018-05-18T07:45:44.574Z,32.30
2018-05-18T07:48:13.262Z,30.10
2018-05-18T07:50:40.920Z,20.27
2018-05-18T07:53:08.990Z,18.90
2018-05-18T07:55:37.078Z,15.83
2018-05-18T07:58:05.437Z,17.30
2018-05-18T08:00:33.086Z,22.20
2018-05-18T08:03:00.725Z,22.27
2018-05-18T08:05:28.389Z,13.30
2018-05-18T08:07:56.201Z,14.60
2018-05-18T08:10:23.758Z,16.50
2018-05-18T08:12:51.863Z,13.07
2018-05-18T08:15:19.596Z,18.37
2018-05-18T08:17:47.667Z,29.00
2018-05-18T08:20:15.719Z,17.37
2018-05-18T08:22:43.356Z,17.40
2018-05-18T08:25:11.014Z,13.57
2018-05-18T08:27:38.684Z,20.67
2018-05-18T08:30:06.332Z,16.00
2018-05-18T08:32:33.984Z,14.97
2018-05-18T08:35:01.655Z,19.20
2018-05-18T08:37:29.301Z,15.53
2018-05-18T08:39:56.950Z,13.20
2018-05-18T08:42:24.612Z,11.63
2018-05-18T08:44:52.353Z,11.67
2018-05-18T08:47:20.417Z,12.37
2018-05-18T08:49:48.080Z,16.43
2018-05-18T08:52:16.151Z,17.83
2018-05-18T08:54:44.195Z,15.57
2018-05-18T08:57:11.866Z,17.10
2018-05-18T08:59:39.584Z,12.40
2018-05-18T09:02:07.244Z,15.33
2018-05-18T09:04:34.916Z,16.13
2018-05-18T09:07:02.646Z,22.30
2018-05-18T09:09:30.714Z,25.20
2018-05-18T09:11:58.793Z,15.63
2018-05-18T09:14:26.963Z,19.07
2018-05-18T09:16:55.072Z,19.47
2018-05-18T09:19:22.763Z,14.90
2018-05-18T09:21:50.398Z,23.27
2018-05-18T09:24:18.160Z,11.53
2018-05-18T09:26:45.881Z,19.40
2018-05-18T09:29:13.959Z,22.30
2018-05-18T09:31:42.043Z,12.23
2018-05-18T09:34:10.225Z,16.53
2018-05-18T09:36:38.244Z,17.23
2018-05-18T09:39:05.931Z,27.60
2018-05-18T09:41:33.595Z,25.67
2018-05-18T09:44:01.270Z,17.70
2018-05-18T09:46:29.309Z,12.87
2018-05-18T09:48:56.976Z,18.60
2018-05-18T09:51:24.621Z,26.90
2018-05-18T09:53:52.262Z,20.37
2018-05-18T09:56:19.987Z,13.27
2018-05-18T09:58:48.019Z,16.80
2018-05-18T10:01:15.660Z,21.43
2018-05-18T10:03:43.413Z,18.63
2018-05-18T10:06:11.128Z,12.67
2018-05-18T10:08:39.219Z,14.40
2018-05-18T10:11:07.265Z,14.77
2018-05-18T10:13:34.944Z,36.03
2018-05-18T10:16:02.978Z,15.07
2018-05-18T10:18:30.651Z,21.53
2018-05-18T10:20:58.290Z,11.33
2018-05-18T10:23:25.998Z,15.47
2018-05-18T10:25:53.673Z,21.93
2018-05-18T10:28:28.318Z,7.53
2018-05-18T10:30:56.062Z,13.60
2018-05-18T10:33:23.689Z,9.40
2018-05-18T10:35:51.337Z,12.87
2018-05-18T10:38:19.006Z,15.03
2018-05-18T10:40:46.707Z,16.17
2018-05-18T10:43:14.782Z,10.77
2018-05-18T10:45:42.979Z,12.20
2018-05-18T10:48:10.730Z,10.97
2018-05-18T10:50:38.763Z,17.00
2018-05-18T10:53:06.476Z,13.90
2018-05-18T10:55:34.129Z,11.53
2018-05-18T10:58:01.908Z,11.13
2018-05-18T11:00:29.705Z,12.77
2018-05-18T11:02:57.409Z,13.67
2018-05-18T11:05:25.584Z,10.00
2018-05-18T11:07:53.154Z,9.20
2018-05-18T11:10:21.213Z,15.93
2018-05-18T11:12:49.250Z,10.23
2018-05-18T11:15:16.957Z,20.87
2018-05-18T11:17:45.020Z,11.27
2018-05-18T11:20:13.092Z,7.60
2018-05-18T11:22:41.150Z,22.87
2018-05-18T11:25:08.921Z,10.30
2018-05-18T11:27:36.548Z,9.40
2018-05-18T11:30:04.249Z,8.60
2018-05-18T11:32:32.284Z,8.87
2018-05-18T11:34:59.916Z,11.80
2018-05-18T11:37:27.640Z,18.07
2018-05-18T11:39:55.715Z,9.80
2018-05-18T11:42:23.750Z,14.93
2018-05-18T11:44:51.455Z,14.07
2018-05-18T11:47:19.486Z,11.93
2018-05-18T11:49:47.155Z,22.73
2018-05-18T11:52:14.837Z,16.67
2018-05-18T11:54:42.558Z,10.67
2018-05-18T11:57:10.192Z,14.87
2018-05-18T11:59:37.869Z,11.00
2018-05-18T12:02:05.536Z,16.40
2018-05-18T12:04:33.173Z,14.23
2018-05-18T12:07:00.816Z,12.10
2018-05-18T12:09:28.856Z,11.90
2018-05-18T12:11:56.552Z,16.87
2018-05-18T12:14:24.606Z,12.33
2018-05-18T12:16:52.295Z,10.63
2018-05-18T12:19:20.355Z,10.80
2018-05-18T12:21:48.405Z,15.67
2018-05-18T12:24:16.050Z,12.67
2018-05-18T12:26:43.754Z,19.97
2018-05-18T12:29:11.826Z,13.10
2018-05-18T12:31:39.954Z,11.80
2018-05-18T12:34:07.509Z,9.77
2018-05-18T12:36:35.228Z,17.30
2018-05-18T12:39:03.261Z,10.93
2018-05-18T12:41:30.905Z,16.77
2018-05-18T12:43:58.927Z,13.67
2018-05-18T12:46:26.961Z,12.67
2018-05-18T12:48:54.601Z,10.00
2018-05-18T12:51:22.314Z,16.63
2018-05-18T12:53:49.964Z,13.10
2018-05-18T12:56:17.614Z,15.30
2018-05-18T12:58:45.270Z,11.73
2018-05-18T13:01:13.007Z,11.37
2018-05-18T13:03:40.741Z,20.53
2018-05-18T13:06:08.795Z,13.67
2018-05-18T13:08:36.870Z,13.97
2018-05-18T13:11:04.955Z,17.67
2018-05-18T13:13:33.013Z,20.40
2018-05-18T13:16:00.713Z,17.87
2018-05-18T13:18:28.341Z,18.20
2018-05-18T13:20:56.409Z,10.83
2018-05-18T13:23:24.048Z,13.93
2018-05-18T13:25:51.744Z,15.63
2018-05-18T13:28:19.797Z,15.53
2018-05-18T13:30:47.856Z,15.33
2018-05-18T13:33:15.494Z,24.70
2018-05-18T13:35:43.145Z,10.73
2018-05-18T13:38:10.864Z,10.87
2018-05-18T13:40:38.897Z,15.40
2018-05-18T13:43:06.573Z,10.27
2018-05-18T13:45:34.222Z,16.33
2018-05-18T13:48:01.929Z,12.87
2018-05-18T13:50:29.988Z,18.53
2018-05-18T13:52:58.027Z,11.70
2018-05-18T13:55:25.660Z,11.00
2018-05-18T13:57:53.392Z,16.43
2018-05-18T14:00:21.497Z,17.63
2018-05-18T14:02:49.310Z,22.33
2018-05-18T14:05:17.322Z,15.97
2018-05-18T14:07:44.958Z,16.70
2018-05-18T14:10:12.609Z,19.50
2018-05-18T14:12:40.575Z,16.97
2018-05-18T14:15:08.224Z,26.30
2018-05-18T14:17:35.874Z,33.13
2018-05-18T14:20:03.580Z,20.07
2018-05-18T14:22:31.637Z,15.83
2018-05-18T14:24:59.427Z,14.90
2018-05-18T14:27:27.511Z,15.30
2018-05-18T14:29:55.552Z,15.90
2018-05-18T14:32:23.234Z,18.50
2018-05-18T14:34:51.295Z,12.50
2018-05-18T14:37:19.358Z,18.63
2018-05-18T14:39:47.002Z,17.40
2018-05-18T14:42:14.684Z,22.23
2018-05-18T14:44:42.384Z,20.70
2018-05-18T14:47:10.041Z,30.17
2018-05-18T14:49:37.738Z,21.70
2018-05-18T14:52:05.389Z,20.27
2018-05-18T14:54:33.027Z,15.30
2018-05-18T14:57:00.800Z,19.90
2018-05-18T14:59:28.529Z,18.23
2018-05-18T15:01:56.615Z,18.90
2018-05-18T15:04:24.290Z,14.53
2018-05-18T15:06:52.059Z,18.57
2018-05-18T15:09:19.789Z,19.63
2018-05-18T15:11:47.895Z,21.77
2018-05-18T15:14:15.590Z,22.87
2018-05-18T15:16:43.249Z,19.17
2018-05-18T15:19:10.963Z,17.57
2018-05-18T15:21:38.709Z,20.60
2018-05-18T15:24:06.480Z,20.10
2018-05-18T15:26:34.150Z,23.77
2018-05-18T15:29:02.198Z,26.13
2018-05-18T15:31:30.617Z,20.33
2018-05-18T15:33:58.349Z,26.70
2018-05-18T15:36:26.017Z,28.37
2018-05-18T15:38:54.100Z,21.67
2018-05-18T15:41:22.153Z,15.13
2018-05-18T15:43:49.824Z,25.80
2018-05-18T15:46:17.905Z,22.67
2018-05-18T15:48:45.956Z,19.70
2018-05-18T15:51:13.597Z,24.80
2018-05-18T15:53:41.251Z,18.07
2018-05-18T15:56:08.925Z,17.37
2018-05-18T15:58:36.572Z,29.10
2018-05-18T16:01:04.259Z,23.70
2018-05-18T16:03:31.938Z,15.57
2018-05-18T16:05:59.608Z,17.50
2018-05-18T16:08:27.657Z,20.30
2018-05-18T16:10:55.342Z,21.13
2018-05-18T16:13:23.381Z,26.00
2018-05-18T16:15:51.069Z,18.77
2018-05-18T16:18:19.141Z,17.23
2018-05-18T16:20:47.239Z,27.50
2018-05-18T16:23:14.978Z,25.97
2018-05-18T16:25:43.033Z,27.00
2018-05-18T16:28:10.703Z,18.33
2018-05-18T16:30:38.374Z,26.37
2018-05-18T16:33:06.475Z,24.27
2018-05-18T16:35:34.205Z,26.60
2018-05-18T16:38:01.907Z,25.40
2018-05-18T16:40:29.582Z,33.23
2018-05-18T16:42:57.249Z,23.70
2018-05-18T16:45:24.886Z,38.70
2018-05-18T16:47:52.634Z,23.27
2018-05-18T16:50:21.083Z,22.67
2018-05-18T16:52:48.808Z,23.70
2018-05-18T16:55:16.411Z,20.27
2018-05-18T16:57:44.093Z,25.03
2018-05-18T17:00:12.197Z,29.60
2018-05-18T17:02:39.925Z,26.60
2018-05-18T17:05:07.959Z,28.40
2018-05-18T17:07:35.662Z,22.27
2018-05-18T17:10:03.734Z,24.53
2018-05-18T17:12:31.810Z,28.20
2018-05-18T17:14:59.433Z,23.63
2018-05-18T17:17:27.254Z,27.63
2018-05-18T17:19:54.901Z,27.43
2018-05-18T17:22:22.961Z,22.30
2018-05-18T17:24:50.643Z,24.70
2018-05-18T17:27:18.308Z,25.33
2018-05-18T17:29:45.948Z,26.00
2018-05-18T17:32:14.003Z,28.53
2018-05-18T17:34:41.660Z,26.13
2018-05-18T17:37:09.313Z,27.13
2018-05-18T17:39:36.982Z,27.07
2018-05-18T17:42:05.632Z,32.77
2018-05-18T17:44:33.344Z,20.50
2018-05-18T17:47:01.008Z,20.57
2018-05-18T17:49:28.648Z,28.03
2018-05-18T17:51:56.353Z,21.20
2018-05-18T17:54:24.461Z,19.87
2018-05-18T17:56:52.200Z,21.77
2018-05-18T17:59:19.902Z,21.57
2018-05-18T18:01:47.596Z,20.90
2018-05-18T18:04:15.371Z,24.77
2018-05-18T18:06:43.418Z,24.17
2018-05-18T18:09:11.108Z,29.97
2018-05-18T18:11:39.151Z,28.97
2018-05-18T18:14:06.840Z,24.60
2018-05-18T18:16:35.872Z,19.10
2018-05-18T18:19:03.513Z,25.20
2018-05-18T18:21:31.155Z,22.60
2018-05-18T18:23:59.218Z,23.07
2018-05-18T18:26:26.900Z,30.73
2018-05-18T18:28:54.971Z,23.20
2018-05-18T18:31:23.039Z,20.53
2018-05-18T18:33:51.077Z,26.50
2018-05-18T18:36:18.787Z,23.17
2018-05-18T18:38:46.384Z,23.50
2018-05-18T18:41:14.094Z,33.53
2018-05-18T18:43:42.179Z,28.00
2018-05-18T18:46:10.232Z,27.33
2018-05-18T18:48:38.284Z,28.60
2018-05-18T18:51:06.014Z,22.50
2018-05-18T18:53:33.681Z,27.77
2018-05-18T18:56:01.389Z,22.20
2018-05-18T18:58:29.464Z,25.13
2018-05-18T19:00:57.643Z,34.37
2018-05-18T19:03:25.589Z,32.47
2018-05-18T19:05:53.233Z,27.47
2018-05-18T19:08:20.972Z,22.03
2018-05-18T19:10:48.690Z,22.80
2018-05-18T19:13:16.328Z,18.83
2018-05-18T19:15:43.997Z,22.53
2018-05-18T19:18:11.644Z,25.97
2018-05-18T19:20:39.305Z,25.83
2018-05-18T19:23:06.965Z,22.40
2018-05-18T19:25:34.608Z,37.67
2018-05-18T19:28:02.257Z,20.97
2018-05-18T19:30:29.926Z,20.70
2018-05-18T19:32:57.649Z,29.87
2018-05-18T19:35:25.328Z,19.97
2018-05-18T19:37:53.399Z,30.27
2018-05-18T19:40:21.473Z,32.77
2018-05-18T19:42:49.517Z,28.53
2018-05-18T19:45:17.205Z,28.73
2018-05-18T19:47:45.273Z,33.13
2018-05-18T19:50:13.302Z,36.43
2018-05-18T19:52:41.004Z,21.97
2018-05-18T19:55:09.035Z,37.10
2018-05-18T19:57:36.754Z,32.67
2018-05-18T20:00:04.371Z,25.47
2018-05-18T20:02:32.095Z,33.90
2018-05-18T20:04:59.733Z,29.43
2018-05-18T20:07:27.812Z,36.30
2018-05-18T20:09:55.573Z,27.87
2018-05-18T20:12:23.640Z,32.07
2018-05-18T20:14:51.695Z,29.23
2018-05-18T20:17:19.338Z,28.40
2018-05-18T20:19:47.087Z,29.87
2018-05-18T20:22:14.664Z,38.53
2018-05-18T20:24:42.319Z,32.43
2018-05-18T20:27:10.013Z,25.27
2018-05-18T20:29:38.115Z,50.70
2018-05-18T20:32:05.763Z,29.47
2018-05-18T20:34:33.393Z,28.70
2018-05-18T20:37:01.107Z,28.17
2018-05-18T20:39:28.744Z,35.10
2018-05-18T20:41:56.851Z,28.70
2018-05-18T20:44:24.551Z,33.27
2018-05-18T20:46:52.203Z,48.57
2018-05-18T20:49:19.845Z,61.07
2018-05-18T20:51:47.619Z,40.73
2018-05-18T20:54:15.614Z,52.90
2018-05-18T20:56:43.257Z,51.40
2018-05-18T20:59:10.922Z,54.53
2018-05-18T21:01:38.552Z,46.67
2018-05-18T21:04:06.193Z,53.50
2018-05-18T21:06:33.934Z,45.50
2018-05-18T21:09:01.605Z,51.40
2018-05-18T21:11:29.644Z,48.23
2018-05-18T21:13:57.366Z,56.53
2018-05-18T21:16:25.013Z,57.63
2018-05-18T21:18:52.679Z,48.40
2018-05-18T21:21:20.423Z,63.90
2018-05-18T21:23:48.469Z,47.63
2018-05-18T21:26:16.158Z,50.93
2018-05-18T21:28:44.219Z,60.03
2018-05-18T21:31:11.874Z,71.77
2018-05-18T21:33:39.519Z,53.57
2018-05-18T21:36:07.227Z,54.23
2018-05-18T21:38:35.259Z,53.00
2018-05-18T21:41:02.936Z,57.00
2018-05-18T21:43:30.604Z,53.17
2018-05-18T21:45:58.245Z,66.63
2018-05-18T21:48:25.886Z,53.27
2018-05-18T21:50:53.588Z,48.47
2018-05-18T21:53:21.227Z,63.37
2018-05-18T21:55:49.295Z,57.43
2018-05-18T21:58:16.986Z,52.00
2018-05-18T22:00:44.618Z,54.93
2018-05-18T22:03:12.264Z,50.40
2018-05-18T22:05:39.920Z,38.23
2018-05-18T22:08:07.562Z,46.63
2018-05-18T22:10:35.303Z,42.37
2018-05-18T22:13:03.344Z,40.13
2018-05-18T22:15:31.040Z,47.80
2018-05-18T22:17:58.687Z,47.00
2018-05-18T22:20:26.360Z,43.83
2018-05-18T22:22:54.398Z,47.60
2018-05-18T22:25:22.053Z,45.17
2018-05-18T22:27:49.713Z,42.20
2018-05-18T22:30:17.365Z,43.60
2018-05-18T22:32:45.079Z,47.83
2018-05-18T22:35:13.134Z,47.27
2018-05-18T22:37:40.773Z,42.87
2018-05-18T22:40:08.421Z,42.03
2018-05-18T22:42:36.091Z,43.80
2018-05-18T22:45:03.772Z,48.50
2018-05-18T22:47:31.370Z,49.37
2018-05-18T22:49:59.434Z,42.60
2018-05-18T22:52:27.485Z,48.40
2018-05-18T22:54:55.157Z,45.53
2018-05-18T22:57:23.241Z,40.23
2018-05-18T22:59:51.270Z,52.33
2018-05-18T23:02:18.911Z,55.60
2018-05-18T23:04:46.621Z,45.37
2018-05-18T23:07:14.261Z,55.03
2018-05-18T23:09:41.927Z,45.83
2018-05-18T23:12:09.585Z,44.80
2018-05-18T23:14:37.283Z,38.17
2018-05-18T23:17:05.305Z,47.73
2018-05-18T23:19:33.030Z,49.37
2018-05-18T23:22:00.781Z,50.37
2018-05-18T23:24:28.822Z,47.50
2018-05-18T23:26:56.501Z,48.37
2018-05-18T23:29:24.141Z,42.27
2018-05-18T23:31:51.796Z,51.50
2018-05-18T23:34:19.486Z,52.87
2018-05-18T23:36:47.195Z,53.83
2018-05-18T23:39:14.846Z,48.80
2018-05-18T23:41:42.504Z,49.10
2018-05-18T23:44:10.142Z,45.20
2018-05-18T23:46:38.213Z,46.00
2018-05-18T23:49:05.874Z,44.60
2018-05-18T23:51:33.545Z,54.80
2018-05-18T23:54:01.629Z,54.03
2018-05-18T23:56:29.301Z,53.87
2018-05-18T23:58:56.973Z,54.27
